Time;durP1;ratioP1;P1;durP2;ratioP2;P2;SDS_P1;SDS_P2;PMS_P1;PMS_P2;Temp;Humidity;BMP_temperature;BMP_pressure;BME280_temperature;BME280_humidity;BME280_pressure;Samples;Min_cycle;Max_cycle;Signal;HPM_P1;HPM_P2
2023/03/25 00:00:38;;;;;;;20.88;8.73;;;;;;;11.08;54.37;99478.00;3159028;28;20120;-70
2023/03/25 00:02:10;;;;;;;15.85;8.90;;;;;;;11.10;54.40;99483.97;3159916;28;20171;-69
2023/03/25 00:03:45;;;;;;;23.53;9.23;;;;;;;11.09;54.27;99477.94;3160799;28;20085;-70
2023/03/25 00:05:21;;;;;;;15.23;8.55;;;;;;;11.08;54.18;99481.44;3162799;28;20051;-69
2023/03/25 00:06:54;;;;;;;20.00;8.45;;;;;;;11.08;54.27;99473.63;3152322;28;20048;-70
2023/03/25 00:08:26;;;;;;;16.90;9.63;;;;;;;11.01;54.26;99464.44;3149297;28;20425;-70
2023/03/25 00:09:58;;;;;;;17.00;9.23;;;;;;;11.12;54.34;99477.75;3162107;28;20555;-70
2023/03/25 00:11:30;;;;;;;18.05;9.68;;;;;;;11.12;54.19;99477.75;3162359;27;20051;-70
2023/03/25 00:13:04;;;;;;;16.65;9.15;;;;;;;11.13;54.17;99476.00;3162561;28;20100;-70
2023/03/25 00:14:38;;;;;;;18.77;9.05;;;;;;;11.14;54.52;99477.66;3161013;28;20435;-70
2023/03/25 00:16:10;;;;;;;21.80;9.90;;;;;;;11.14;54.31;99480.28;3158695;28;20545;-70
2023/03/25 00:17:42;;;;;;;16.02;8.93;;;;;;;11.14;54.17;99482.88;3161842;28;20047;-70
2023/03/25 00:19:15;;;;;;;18.95;9.70;;;;;;;11.11;54.37;99468.25;3161626;28;20050;-70
2023/03/25 00:20:49;;;;;;;19.02;9.57;;;;;;;10.36;54.38;99344.56;3161686;27;20207;-70
2023/03/25 00:22:21;;;;;;;18.38;9.63;;;;;;;11.13;54.45;99469.00;3159102;28;20048;-70
2023/03/25 00:23:53;;;;;;;22.92;11.00;;;;;;;11.13;54.49;99469.00;3161275;28;20051;-69
2023/03/25 00:25:24;;;;;;;21.20;10.50;;;;;;;11.03;54.72;99451.31;3161789;28;20058;-69
2023/03/25 00:26:56;;;;;;;24.65;11.95;;;;;;;11.11;54.63;99473.44;3163200;28;20496;-69
2023/03/25 00:28:29;;;;;;;20.92;11.40;;;;;;;11.06;55.15;99478.09;3162273;28;20295;-69
2023/03/25 00:30:01;;;;;;;22.70;11.65;;;;;;;11.01;55.10;99472.28;3162379;28;20459;-72
2023/03/25 00:31:33;;;;;;;24.65;12.30;;;;;;;11.00;55.33;99470.56;3162823;28;20179;-70
2023/03/25 00:33:06;;;;;;;24.85;13.35;;;;;;;10.97;55.63;99465.50;3162766;28;20429;-72
2023/03/25 00:34:40;;;;;;;23.02;12.60;;;;;;;10.92;55.46;99468.38;3156556;28;20048;-72
2023/03/25 00:36:14;;;;;;;26.98;14.32;;;;;;;10.90;55.67;99467.59;3161763;28;20474;-68
2023/03/25 00:37:46;;;;;;;;;;;;;;;10.83;55.42;99458.44;3156209;28;20075;-69
2023/03/25 00:39:18;;;;;;;24.52;14.15;;;;;;;10.79;55.86;99456.06;3163212;28;19935;-68
2023/03/25 00:40:51;;;;;;;27.85;14.18;;;;;;;10.78;56.35;99460.41;3162475;28;20105;-69
2023/03/25 00:42:27;;;;;;;;;;;;;;;10.74;55.93;99450.22;3160812;28;20486;-70
2023/03/25 00:44:01;;;;;;;24.60;13.88;;;;;;;10.71;56.19;99451.25;3161831;28;19931;-69
2023/03/25 00:45:32;;;;;;;25.88;14.07;;;;;;;10.73;56.50;99452.00;3162354;28;20528;-70
2023/03/25 00:47:04;;;;;;;28.48;14.75;;;;;;;10.76;56.39;99448.41;3163305;28;20055;-70
2023/03/25 00:48:36;;;;;;;25.88;14.20;;;;;;;10.77;56.29;99445.72;3161975;28;20106;-70
2023/03/25 00:50:10;;;;;;;30.75;15.25;;;;;;;10.79;56.71;99445.63;3158771;28;20105;-70
2023/03/25 00:51:44;;;;;;;29.73;12.95;;;;;;;10.81;56.63;99451.63;3160880;28;20096;-70
2023/03/25 00:53:15;;;;;;;32.85;14.32;;;;;;;10.80;56.70;99449.94;3156840;28;20060;-70
2023/03/25 00:54:47;;;;;;;27.17;14.18;;;;;;;10.81;56.55;99449.84;3161820;28;20055;-70
2023/03/25 00:56:19;;;;;;;27.30;14.32;;;;;;;10.83;56.78;99449.78;3161410;28;20453;-70
2023/03/25 00:57:51;;;;;;;25.02;14.60;;;;;;;10.80;56.66;99445.56;3162337;28;20060;-71
2023/03/25 00:59:23;;;;;;;27.38;14.80;;;;;;;10.68;56.94;99435.78;3162146;28;20048;-70
2023/03/25 01:00:56;;;;;;;23.35;14.93;;;;;;;10.77;56.84;99447.50;3161378;28;20057;-70
2023/03/25 01:02:29;;;;;;;24.25;14.30;;;;;;;10.78;56.85;99443.97;3161372;28;20056;-70
2023/03/25 01:04:00;;;;;;;25.02;14.52;;;;;;;10.78;57.21;99436.16;3162093;28;20052;-70
2023/03/25 01:05:32;;;;;;;26.60;15.25;;;;;;;10.79;57.17;99437.81;3162630;28;20567;-71
2023/03/25 01:07:19;;;;;;;26.33;14.85;;;;;;;10.77;56.92;99445.72;3160433;28;20059;-70
2023/03/25 01:08:51;;;;;;;25.48;14.63;;;;;;;10.74;57.37;99447.63;3170574;28;20486;-71
2023/03/25 01:10:23;;;;;;;28.95;15.15;;;;;;;10.73;57.43;99441.56;3171401;28;20047;-71
2023/03/25 01:11:58;;;;;;;28.65;14.63;;;;;;;10.73;57.42;99432.94;3171289;28;20055;-71
2023/03/25 01:13:29;;;;;;;28.58;16.02;;;;;;;10.72;57.27;99437.31;3171645;28;20047;-70
2023/03/25 01:15:01;;;;;;;26.58;14.98;;;;;;;10.69;57.66;99438.28;3165925;28;20512;-70
2023/03/25 01:16:34;;;;;;;31.03;16.60;;;;;;;9.94;57.63;99322.38;3162673;28;20598;-70
2023/03/25 01:18:06;;;;;;;26.65;15.70;;;;;;;10.65;57.58;99434.19;3171429;28;20358;-71
2023/03/25 01:19:38;;;;;;;32.33;15.80;;;;;;;10.64;57.96;99432.47;3171123;28;20108;-70
2023/03/25 01:21:09;;;;;;;29.10;15.38;;;;;;;10.63;58.15;99433.41;3171682;28;20742;-70
2023/03/25 01:22:42;;;;;;;28.35;15.50;;;;;;;10.63;58.21;99427.34;3163751;28;20180;-70
2023/03/25 01:24:14;;;;;;;32.50;15.30;;;;;;;10.20;57.91;99352.28;3167880;28;20440;-69
2023/03/25 01:25:46;;;;;;;29.88;14.95;;;;;;;10.63;58.10;99430.81;3171354;28;20052;-69
2023/03/25 01:27:17;;;;;;;27.38;14.88;;;;;;;10.63;57.93;99417.78;3171468;28;20047;-69
2023/03/25 01:28:49;;;;;;;27.58;14.90;;;;;;;10.63;58.11;99420.38;3171198;27;20131;-69
2023/03/25 01:30:21;;;;;;;28.40;14.75;;;;;;;10.56;58.06;99403.41;3170841;28;20112;-68
2023/03/25 01:31:53;;;;;;;27.23;15.52;;;;;;;10.66;58.22;99424.59;3171010;28;20593;-69
2023/03/25 01:33:24;;;;;;;35.05;16.10;;;;;;;10.64;58.26;99413.41;3171306;28;20431;-70
2023/03/25 01:34:56;;;;;;;26.02;15.18;;;;;;;10.64;58.28;99418.63;3171053;28;20045;-70
2023/03/25 01:36:29;;;;;;;27.58;14.68;;;;;;;10.62;58.39;99417.88;3168825;28;20043;-70
2023/03/25 01:38:03;;;;;;;25.58;15.13;;;;;;;10.58;58.25;99411.97;3160995;28;20448;-69
2023/03/25 01:39:34;;;;;;;25.08;14.48;;;;;;;10.55;58.55;99414.72;3170835;28;20059;-70
2023/03/25 01:41:06;;;;;;;26.45;14.45;;;;;;;10.54;58.70;99407.84;3170588;28;20127;-70
2023/03/25 01:42:38;;;;;;;29.17;15.15;;;;;;;10.52;58.66;99404.47;3171126;28;20047;-70
2023/03/25 01:44:48;;;;;;;28.88;14.45;;;;;;;10.53;58.52;99405.31;3171144;28;20048;-70
2023/03/25 01:46:20;;;;;;;27.38;15.30;;;;;;;10.52;58.54;99408.84;3165888;28;20047;-70
2023/03/25 01:48:06;;;;;;;26.48;15.07;;;;;;;10.54;58.76;99409.59;3171043;28;20043;-70
2023/03/25 01:49:43;;;;;;;25.92;15.00;;;;;;;10.52;58.68;99394.06;3170764;28;20496;-70
2023/03/25 01:51:17;;;;;;;29.90;15.40;;;;;;;10.51;58.71;99388.94;3170841;28;20058;-69
2023/03/25 01:52:52;;;;;;;28.00;14.60;;;;;;;10.25;58.63;99352.88;3169642;28;20111;-70
2023/03/25 01:54:26;;;;;;;30.38;15.15;;;;;;;10.56;58.46;99394.72;3171072;28;20043;-70
2023/03/25 01:56:02;;;;;;;27.65;14.45;;;;;;;10.56;58.60;99402.53;3170997;28;20056;-70
2023/03/25 01:57:33;;;;;;;33.22;15.55;;;;;;;10.54;58.46;99391.38;3171038;28;20051;-70
2023/03/25 01:59:06;;;;;;;26.35;14.98;;;;;;;10.55;58.63;99391.28;3170639;28;20447;-69
2023/03/25 02:00:39;;;;;;;;;;;;;;;10.52;58.47;99388.84;3162885;28;20051;-69
2023/03/25 02:02:14;;;;;;;26.15;13.65;;;;;;;10.49;58.45;99391.59;3161303;28;19923;-69
2023/03/25 02:03:49;;;;;;;27.77;15.27;;;;;;;10.49;58.68;99383.78;3160964;28;20730;-70
2023/03/25 02:05:27;;;;;;;24.50;15.18;;;;;;;10.48;58.95;99382.97;3161655;28;20063;-69
2023/03/25 02:07:00;;;;;;;25.92;13.55;;;;;;;10.49;58.87;99375.97;3161210;28;20048;-69
2023/03/25 02:08:33;;;;;;;26.90;14.82;;;;;;;10.49;58.86;99373.38;3152394;28;20103;-69
2023/03/25 02:10:08;;;;;;;26.02;14.30;;;;;;;10.51;58.84;99379.34;3161200;28;20094;-69
2023/03/25 02:11:40;;;;;;;24.45;14.15;;;;;;;10.48;58.76;99371.72;3161001;28;20504;-69
2023/03/25 02:13:14;;;;;;;25.02;13.57;;;;;;;10.50;58.60;99372.47;3160710;28;20157;-69
2023/03/25 02:14:45;;;;;;;27.67;13.82;;;;;;;10.51;58.48;99373.31;3156768;28;20068;-70
2023/03/25 02:16:27;;;;;;;26.23;14.52;;;;;;;10.49;58.98;99378.59;3158144;28;20083;-69
2023/03/25 02:18:31;;;;;;;25.58;14.35;;;;;;;10.48;58.55;99369.94;3160912;28;20551;-69
2023/03/25 02:20:24;;;;;;;25.35;14.15;;;;;;;10.18;58.65;99327.25;3149584;28;20533;-69
2023/03/25 02:22:27;;;;;;;26.40;13.63;;;;;;;10.40;59.09;99379.06;3160155;28;20427;-69
2023/03/25 02:24:28;;;;;;;24.95;12.48;;;;;;;10.42;58.62;99377.22;3154902;28;20055;-69
2023/03/25 02:26:48;;;;;;;24.23;13.88;;;;;;;10.41;58.74;99380.72;3160440;28;20055;-69
2023/03/25 02:28:34;;;;;;;24.10;13.63;;;;;;;10.39;58.94;99377.41;3150611;28;20134;-69
2023/03/25 02:30:35;;;;;;;26.00;12.95;;;;;;;10.39;58.73;99374.78;3161832;28;20043;-69
2023/03/25 02:32:20;;;;;;;24.05;13.52;;;;;;;10.06;59.00;99314.84;3155029;28;20714;-69
2023/03/25 02:34:14;;;;;;;25.92;15.02;;;;;;;10.36;59.03;99369.75;3160337;28;20051;-69
2023/03/25 02:36:02;;;;;;;23.13;13.35;;;;;;;10.35;58.80;99371.50;3149405;28;20528;-71
2023/03/25 02:38:10;;;;;;;24.10;13.02;;;;;;;10.29;59.09;99357.94;3159943;28;20059;-68
2023/03/25 02:39:48;;;;;;;23.15;12.85;;;;;;;10.27;59.12;99344.19;3156235;28;20226;-69
2023/03/25 02:41:24;;;;;;;21.20;12.50;;;;;;;10.27;58.89;99352.00;3160662;28;20157;-68
2023/03/25 02:43:02;;;;;;;23.15;13.63;;;;;;;9.51;58.89;99232.66;3160191;28;20051;-70
2023/03/25 02:44:40;;;;;;;25.55;14.13;;;;;;;10.33;59.05;99369.91;3159705;28;20058;-68
2023/03/25 02:46:17;;;;;;;24.70;14.50;;;;;;;10.32;58.94;99369.03;3160892;28;20063;-67
2023/03/25 02:47:54;;;;;;;26.05;13.10;;;;;;;10.20;59.17;99349.69;3161322;28;20054;-67
2023/03/25 02:49:30;;;;;;;26.08;13.65;;;;;;;10.32;59.12;99363.00;3160974;28;20090;-68
2023/03/25 02:51:09;;;;;;;25.15;14.23;;;;;;;10.31;59.27;99359.56;3150911;28;20062;-67
2023/03/25 02:52:45;;;;;;;23.83;13.95;;;;;;;10.29;59.35;99356.19;3160242;28;20234;-68
2023/03/25 02:54:20;;;;;;;22.35;13.07;;;;;;;10.29;59.34;99360.53;3150390;28;20060;-69
2023/03/25 02:55:58;;;;;;;25.63;13.32;;;;;;;10.29;59.26;99363.16;3159948;28;20559;-68
2023/03/25 02:57:33;;;;;;;24.23;13.65;;;;;;;10.27;59.18;99354.59;3159778;28;20518;-69
2023/03/25 02:59:08;;;;;;;27.48;13.93;;;;;;;10.25;59.27;99359.84;3161057;28;20063;-70
2023/03/25 03:00:40;;;;;;;28.85;13.20;;;;;;;10.20;59.39;99357.47;3160876;28;20315;-70
2023/03/25 03:02:12;;;;;;;26.33;13.80;;;;;;;10.19;59.71;99352.34;3160309;28;20047;-69
2023/03/25 03:03:44;;;;;;;22.60;13.30;;;;;;;9.98;59.71;99323.03;3160233;28;20086;-69
2023/03/25 03:05:23;;;;;;;21.00;12.60;;;;;;;10.13;59.46;99353.50;3160764;28;20051;-70
2023/03/25 03:06:57;;;;;;;22.27;13.13;;;;;;;10.11;59.50;99352.72;3148488;28;20297;-69
2023/03/25 03:09:01;;;;;;;22.48;13.27;;;;;;;9.88;59.46;99314.00;3148252;28;20048;-70
2023/03/25 03:10:42;;;;;;;28.30;13.80;;;;;;;9.99;59.57;99341.16;3146872;28;20061;-70
2023/03/25 03:12:35;;;;;;;23.50;13.48;;;;;;;9.92;59.48;99338.97;3160528;28;20625;-70
2023/03/25 03:14:23;;;;;;;21.27;13.40;;;;;;;9.84;59.59;99336.72;3166230;28;20424;-71
2023/03/25 03:16:00;;;;;;;23.25;13.07;;;;;;;9.77;60.23;99333.59;3169360;28;20595;-70
2023/03/25 03:17:42;;;;;;;25.85;13.73;;;;;;;9.72;60.13;99335.56;3165117;28;20058;-71
2023/03/25 03:19:30;;;;;;;24.90;14.10;;;;;;;9.62;60.32;99329.16;3170276;28;20071;-71
2023/03/25 03:21:09;;;;;;;28.33;14.27;;;;;;;9.59;60.61;99339.72;3160280;28;20188;-70
2023/03/25 03:22:51;;;;;;;23.83;13.60;;;;;;;9.53;60.41;99324.41;3150872;28;20142;-69
2023/03/25 03:24:27;;;;;;;24.55;13.70;;;;;;;9.46;60.76;99336.00;3147962;28;20086;-69
2023/03/25 03:26:07;;;;;;;25.30;14.25;;;;;;;9.40;60.94;99326.72;3157836;28;20520;-70
2023/03/25 03:27:47;;;;;;;24.33;13.35;;;;;;;9.31;61.05;99328.00;3159961;28;20725;-70
2023/03/25 03:29:25;;;;;;;22.92;13.82;;;;;;;9.25;61.33;99336.09;3161132;28;20918;-69
2023/03/25 03:31:05;;;;;;;27.23;13.40;;;;;;;9.22;61.56;99332.81;3159541;28;20082;-70
2023/03/25 03:32:44;;;;;;;24.27;13.20;;;;;;;9.19;61.86;99331.19;3160904;28;20489;-70
2023/03/25 03:34:23;;;;;;;20.55;12.63;;;;;;;9.15;61.89;99327.06;3160403;28;20283;-70
2023/03/25 03:36:00;;;;;;;24.63;13.07;;;;;;;9.13;62.13;99326.28;3160858;28;20093;-69
2023/03/25 03:37:36;;;;;;;22.58;12.55;;;;;;;9.11;62.05;99325.53;3160054;28;20541;-70
2023/03/25 03:39:15;;;;;;;22.35;13.60;;;;;;;9.10;62.21;99323.84;3155982;28;20135;-71
2023/03/25 03:40:53;;;;;;;21.75;11.65;;;;;;;9.07;62.10;99322.22;3163223;28;20056;-70
2023/03/25 03:42:31;;;;;;;23.70;13.05;;;;;;;9.06;62.28;99327.50;3164303;27;20521;-70
2023/03/25 03:44:08;;;;;;;22.33;12.55;;;;;;;9.04;62.54;99322.38;3164518;27;20594;-69
2023/03/25 03:45:44;;;;;;;27.27;14.38;;;;;;;9.05;62.45;99321.47;3162170;28;20120;-68
2023/03/25 03:47:20;;;;;;;22.70;13.00;;;;;;;9.04;62.44;99331.91;3165080;27;20070;-68
2023/03/25 03:48:56;;;;;;;20.48;12.15;;;;;;;9.03;62.58;99330.25;3164319;27;20517;-70
2023/03/25 03:50:31;;;;;;;27.50;14.15;;;;;;;9.03;62.64;99330.25;3164135;28;20053;-71
2023/03/25 03:52:09;;;;;;;30.95;13.30;;;;;;;9.04;62.56;99339.72;3161472;27;20047;-69
2023/03/25 03:53:48;;;;;;;23.63;12.73;;;;;;;9.06;62.64;99332.69;3162755;28;20604;-70
2023/03/25 03:55:24;;;;;;;24.77;12.65;;;;;;;9.04;62.82;99329.31;3164094;28;20047;-71
2023/03/25 03:57:01;;;;;;;23.70;12.80;;;;;;;9.02;62.95;99325.94;3164902;28;20097;-71
2023/03/25 03:58:40;;;;;;;23.35;12.23;;;;;;;8.99;62.89;99329.53;3164465;27;20109;-71
2023/03/25 04:00:18;;;;;;;22.48;12.32;;;;;;;8.91;62.95;99320.41;3164402;28;20051;-70
2023/03/25 04:01:55;;;;;;;23.90;12.15;;;;;;;8.95;62.69;99324.56;3164536;28;20764;-71
2023/03/25 04:03:33;;;;;;;19.08;11.55;;;;;;;8.92;63.00;99317.75;3164580;28;20585;-71
2023/03/25 04:05:07;;;;;;;27.13;12.25;;;;;;;8.78;62.88;99302.78;3164145;27;20055;-70
2023/03/25 04:06:43;;;;;;;21.17;12.07;;;;;;;8.89;63.18;99326.50;3164430;27;20055;-72
2023/03/25 04:08:27;;;;;;;22.00;11.52;;;;;;;8.73;63.01;99301.34;3164513;27;20569;-71
2023/03/25 04:10:05;;;;;;;20.65;11.57;;;;;;;8.10;63.39;99206.34;3152754;28;20067;-71
2023/03/25 04:11:43;;;;;;;20.83;11.50;;;;;;;8.90;63.45;99327.34;3163988;28;20117;-70
2023/03/25 04:13:17;;;;;;;20.60;11.60;;;;;;;8.91;63.45;99329.06;3163797;28;20055;-70
2023/03/25 04:14:48;;;;;;;19.45;11.43;;;;;;;8.91;63.40;99321.25;3159618;28;20097;-70
2023/03/25 04:16:23;;;;;;;18.50;10.73;;;;;;;8.92;63.45;99322.94;3162371;28;20047;-70
2023/03/25 04:17:56;;;;;;;21.42;11.02;;;;;;;8.91;63.25;99331.66;3153657;27;20066;-71
2023/03/25 04:19:27;;;;;;;26.02;11.60;;;;;;;8.89;63.17;99326.50;3150755;28;20052;-70
2023/03/25 04:20:59;;;;;;;21.95;11.43;;;;;;;8.89;63.24;99334.31;3151179;28;20048;-70
2023/03/25 04:22:30;;;;;;;23.30;12.97;;;;;;;8.87;63.20;99327.47;3160793;28;20051;-70
2023/03/25 04:24:03;;;;;;;22.65;11.57;;;;;;;8.87;63.16;99336.16;3163218;28;20149;-70
2023/03/25 04:25:35;;;;;;;22.52;12.85;;;;;;;8.88;63.31;99342.19;3159328;28;20357;-69
2023/03/25 04:27:08;;;;;;;21.08;11.35;;;;;;;8.88;63.32;99334.38;3164650;28;20077;-71
2023/03/25 04:28:40;;;;;;;20.13;11.82;;;;;;;8.86;63.39;99342.22;3164599;27;20093;-70
2023/03/25 04:30:13;;;;;;;22.67;12.80;;;;;;;8.87;63.62;99349.13;3167462;27;20063;-71
2023/03/25 04:31:49;;;;;;;22.00;12.52;;;;;;;8.90;63.49;99345.53;3168204;27;20104;-71
2023/03/25 04:33:21;;;;;;;18.77;11.32;;;;;;;8.87;63.57;99338.75;3168539;28;20507;-70
2023/03/25 04:34:56;;;;;;;24.50;12.70;;;;;;;8.89;63.51;99342.09;3168125;28;20055;-71
2023/03/25 04:36:32;;;;;;;23.88;12.93;;;;;;;8.30;63.29;99235.75;3168414;28;20463;-70
2023/03/25 04:38:04;;;;;;;21.98;12.20;;;;;;;8.93;63.39;99345.38;3168418;28;20044;-70
2023/03/25 04:39:36;;;;;;;24.23;12.40;;;;;;;8.93;63.57;99334.16;3164849;28;20171;-70
2023/03/25 04:41:09;;;;;;;21.80;12.00;;;;;;;8.94;63.35;99338.47;3162899;28;20492;-69
2023/03/25 04:42:41;;;;;;;21.92;12.65;;;;;;;8.95;63.47;99340.13;3163063;28;20055;-69
2023/03/25 04:44:12;;;;;;;22.65;11.90;;;;;;;8.95;63.39;99342.72;3163310;28;20077;-68
2023/03/25 04:45:48;;;;;;;23.83;11.75;;;;;;;8.54;63.42;99278.78;3164296;28;20052;-69
2023/03/25 04:47:24;;;;;;;27.25;12.43;;;;;;;8.95;63.25;99338.38;3164669;27;20096;-69
2023/03/25 04:48:59;;;;;;;22.45;12.02;;;;;;;8.60;63.30;99288.88;3164798;28;20448;-69
2023/03/25 04:50:32;;;;;;;21.10;11.32;;;;;;;8.94;63.45;99346.25;3162262;28;20056;-69
2023/03/25 04:52:04;;;;;;;22.25;12.55;;;;;;;8.95;63.46;99345.31;3162951;28;20065;-69
2023/03/25 04:53:36;;;;;;;22.08;12.10;;;;;;;8.97;63.47;99351.31;3162936;28;20113;-68
2023/03/25 04:55:08;;;;;;;22.55;12.10;;;;;;;8.97;63.50;99353.91;3154773;28;20424;-69
2023/03/25 04:56:40;;;;;;;20.13;11.73;;;;;;;8.97;63.34;99357.34;3159770;28;20051;-69
2023/03/25 04:58:12;;;;;;;21.35;12.23;;;;;;;8.96;63.64;99350.47;3162945;28;20058;-70
2023/03/25 04:59:45;;;;;;;22.58;11.18;;;;;;;8.96;63.66;99350.47;3162222;28;20517;-69
2023/03/25 05:01:29;;;;;;;22.10;12.77;;;;;;;8.98;63.46;99345.19;3161254;28;20056;-69
2023/03/25 05:03:02;;;;;;;;;;;;;;;8.98;63.30;99352.97;3161859;28;20090;-70
2023/03/25 05:04:34;;;;;;;22.33;11.90;;;;;;;8.92;63.38;99348.91;3160960;28;20043;-69
2023/03/25 05:06:07;;;;;;;20.98;10.52;;;;;;;9.00;63.59;99354.59;3163005;28;20525;-69
2023/03/25 05:07:39;;;;;;;22.08;12.50;;;;;;;9.01;63.31;99345.88;3162652;28;20571;-69
2023/03/25 05:09:14;;;;;;;19.95;12.00;;;;;;;9.03;63.14;99346.66;3165806;28;20043;-69
2023/03/25 05:10:46;;;;;;;21.20;11.90;;;;;;;9.04;63.19;99342.31;3158826;28;20496;-70
2023/03/25 05:12:18;;;;;;;21.52;11.90;;;;;;;9.04;63.35;99344.91;3165913;28;20069;-70
2023/03/25 05:13:50;;;;;;;27.45;11.77;;;;;;;9.06;63.26;99340.50;3162419;28;20451;-69
2023/03/25 05:15:21;;;;;;;19.30;11.30;;;;;;;9.07;63.29;99342.16;3156788;28;20047;-70
2023/03/25 05:16:54;;;;;;;22.30;11.45;;;;;;;9.10;63.15;99348.06;3168639;28;20270;-70
2023/03/25 05:18:27;;;;;;;;;;;;;;;9.11;63.07;99348.91;3171902;28;20568;-70
2023/03/25 05:19:59;;;;;;;22.00;10.25;;;;;;;9.13;63.44;99346.22;3166998;28;19996;-69
2023/03/25 05:21:32;;;;;;;17.75;10.48;;;;;;;9.16;62.87;99341.72;3161453;28;20507;-69
2023/03/25 05:23:04;;;;;;;21.02;11.23;;;;;;;8.43;62.88;99217.00;3161921;28;20051;-70
2023/03/25 05:24:36;;;;;;;23.98;10.77;;;;;;;9.23;62.89;99347.47;3148600;28;20052;-70
2023/03/25 05:26:10;;;;;;;20.17;11.30;;;;;;;9.24;62.68;99333.59;3160125;28;20143;-70
2023/03/25 05:27:43;;;;;;;20.30;10.50;;;;;;;9.25;62.78;99340.47;3161087;28;20178;-70
2023/03/25 05:29:15;;;;;;;24.77;11.35;;;;;;;9.28;62.54;99351.53;3161085;28;20438;-67
2023/03/25 05:30:47;;;;;;;21.48;11.93;;;;;;;8.50;62.75;99217.56;3160525;28;20056;-69
2023/03/25 05:32:19;;;;;;;23.25;12.50;;;;;;;9.19;62.52;99323.41;3161309;28;20508;-69
2023/03/25 05:33:53;;;;;;;18.65;11.18;;;;;;;9.36;62.60;99342.56;3161206;28;20150;-68
2023/03/25 05:35:26;;;;;;;22.73;11.52;;;;;;;9.38;62.52;99351.97;3162662;28;20776;-69
2023/03/25 05:36:58;;;;;;;24.85;11.15;;;;;;;9.40;62.42;99342.31;3161314;28;20052;-70
2023/03/25 05:38:31;;;;;;;22.25;10.43;;;;;;;9.44;62.46;99340.44;3160100;28;20055;-69
2023/03/25 05:40:04;;;;;;;23.33;11.57;;;;;;;9.47;62.48;99342.91;3157666;28;20051;-69
2023/03/25 05:41:38;;;;;;;18.70;11.50;;;;;;;9.50;62.13;99340.16;3157826;28;20090;-68
2023/03/25 05:43:10;;;;;;;19.90;11.05;;;;;;;9.52;62.37;99335.69;3160380;28;20055;-67
2023/03/25 05:44:50;;;;;;;19.48;11.20;;;;;;;9.59;62.23;99336.28;3161771;28;20047;-69
2023/03/25 05:46:22;;;;;;;24.40;11.63;;;;;;;9.63;62.12;99338.63;3161701;28;20517;-68
2023/03/25 05:47:54;;;;;;;20.58;11.60;;;;;;;9.69;62.08;99334.88;3161673;28;20503;-69
2023/03/25 05:49:28;;;;;;;21.13;11.07;;;;;;;9.74;62.00;99333.75;3161086;28;20878;-75
2023/03/25 05:51:03;;;;;;;25.00;11.98;;;;;;;9.84;61.73;99338.50;3161168;28;20527;-71
2023/03/25 05:52:35;;;;;;;26.42;11.32;;;;;;;9.89;61.85;99326.13;3156392;28;20052;-71
2023/03/25 05:54:12;;;;;;;23.20;11.02;;;;;;;10.09;61.34;99328.56;3161024;28;20222;-70
2023/03/25 05:55:46;;;;;;;25.58;10.73;;;;;;;10.32;61.03;99329.16;3159482;28;20051;-68
2023/03/25 05:57:18;;;;;;;17.58;10.75;;;;;;;10.52;60.59;99341.97;3161477;28;20047;-69
2023/03/25 05:58:51;;;;;;;19.65;11.57;;;;;;;10.81;59.66;99337.00;3161742;28;20083;-76
2023/03/25 06:00:23;;;;;;;19.15;10.60;;;;;;;11.02;59.04;99335.84;3161716;28;20047;-70
2023/03/25 06:01:55;;;;;;;23.35;12.55;;;;;;;11.18;58.93;99338.47;3161992;28;20078;-76
2023/03/25 06:03:27;;;;;;;24.73;11.85;;;;;;;11.29;58.28;99341.31;3161971;28;20415;-73
2023/03/25 06:05:00;;;;;;;20.52;10.77;;;;;;;11.42;57.96;99331.06;3166298;28;20142;-71
2023/03/25 06:06:32;;;;;;;;;;;;;;;11.54;57.86;99327.75;3161936;28;20690;-73
2023/03/25 06:08:05;;;;;;;16.60;10.02;;;;;;;11.59;57.52;99328.34;3161507;28;20125;-74
2023/03/25 06:09:36;;;;;;;17.83;10.13;;;;;;;11.67;57.55;99342.69;3159372;28;20065;-72
2023/03/25 06:11:08;;;;;;;21.10;9.73;;;;;;;11.71;57.22;99333.75;3155961;28;20089;-70
2023/03/25 06:12:40;;;;;;;17.80;9.77;;;;;;;11.80;56.85;99338.44;3161385;28;20120;-71
2023/03/25 06:14:12;;;;;;;17.58;10.00;;;;;;;11.91;56.62;99337.88;3160761;28;20059;-71
2023/03/25 06:15:44;;;;;;;17.60;9.60;;;;;;;12.00;56.18;99343.38;3155273;28;20067;-74
2023/03/25 06:17:17;;;;;;;22.52;10.07;;;;;;;12.09;56.04;99335.94;3156793;28;20116;-67
2023/03/25 06:18:55;;;;;;;125.57;54.17;;;;;;;12.18;55.53;99338.00;3152612;28;20492;-70
2023/03/25 06:20:28;;;;;;;66.65;27.98;;;;;;;12.27;55.24;99353.13;3161980;28;20381;-68
2023/03/25 06:22:00;;;;;;;53.47;29.95;;;;;;;12.35;55.06;99337.84;3161670;28;20520;-70
2023/03/25 06:23:34;;;;;;;22.73;12.45;;;;;;;12.38;55.36;99329.84;3161106;28;20275;-74
2023/03/25 06:25:07;;;;;;;25.08;10.80;;;;;;;12.55;54.99;99338.44;3160520;28;20370;-82
2023/03/25 06:26:39;;;;;;;22.50;10.48;;;;;;;12.66;54.74;99336.00;3152988;28;20051;-77
2023/03/25 06:28:11;;;;;;;47.08;25.08;;;;;;;12.79;54.37;99336.09;3162976;28;20403;-84
2023/03/25 06:29:43;;;;;;;34.33;16.75;;;;;;;12.91;54.26;99337.94;3161281;28;20059;-76
2023/03/25 06:31:17;;;;;;;18.25;10.07;;;;;;;13.01;53.94;99335.59;3161051;28;20104;-77
2023/03/25 06:32:49;;;;;;;18.42;10.38;;;;;;;13.12;53.60;99333.97;3161318;28;20504;-70
2023/03/25 06:34:21;;;;;;;25.98;13.20;;;;;;;13.27;53.48;99331.38;3161146;28;20532;-76
2023/03/25 06:35:55;;;;;;;51.45;26.60;;;;;;;13.45;53.09;99324.13;3161921;28;20055;-79
2023/03/25 06:37:27;;;;;;;32.22;15.38;;;;;;;13.65;52.96;99331.53;3161301;28;20539;-77
2023/03/25 06:38:59;;;;;;;28.73;14.52;;;;;;;13.87;52.38;99336.16;3161531;28;20075;-73
2023/03/25 06:40:31;;;;;;;26.98;13.55;;;;;;;14.08;51.64;99333.94;3158297;28;20555;-70
2023/03/25 06:42:03;;;;;;;19.65;10.88;;;;;;;14.27;51.00;99331.72;3160729;28;20100;-73
2023/03/25 06:43:35;;;;;;;16.88;8.07;;;;;;;14.47;50.78;99332.16;3161571;28;20055;-70
2023/03/25 06:45:09;;;;;;;15.07;8.95;;;;;;;14.83;50.61;99333.19;3160417;28;20494;-68
2023/03/25 06:46:41;;;;;;;16.85;9.35;;;;;;;15.35;49.85;99327.72;3160738;27;20367;-71
2023/03/25 06:48:12;;;;;;;18.13;9.45;;;;;;;15.96;48.83;99325.00;3160483;28;20051;-74
2023/03/25 06:49:44;;;;;;;16.13;8.30;;;;;;;16.66;47.52;99326.66;3161847;28;20116;-72
2023/03/25 06:51:20;;;;;;;13.60;7.80;;;;;;;17.33;45.77;99323.13;3160440;28;20062;-79
2023/03/25 06:52:53;;;;;;;15.52;8.77;;;;;;;17.95;44.68;99324.22;3160257;28;20090;-68
2023/03/25 06:54:25;;;;;;;18.02;8.73;;;;;;;18.49;43.32;99324.97;3160071;28;20055;-71
2023/03/25 06:55:57;;;;;;;17.27;7.85;;;;;;;18.84;42.30;99322.81;3156499;28;20150;-65
2023/03/25 06:57:29;;;;;;;16.75;8.18;;;;;;;19.14;41.18;99325.50;3160625;28;20105;-68
2023/03/25 06:59:01;;;;;;;20.02;8.05;;;;;;;19.41;40.69;99331.00;3161492;28;20051;-71
2023/03/25 07:00:33;;;;;;;15.85;8.07;;;;;;;19.60;39.89;99319.59;3161227;28;20053;-70
2023/03/25 07:02:05;;;;;;;15.30;7.55;;;;;;;19.76;39.46;99321.72;3160001;28;20054;-67
2023/03/25 07:03:38;;;;;;;19.60;8.63;;;;;;;19.96;39.23;99320.72;3159025;28;20276;-70
2023/03/25 07:05:10;;;;;;;13.63;8.52;;;;;;;20.21;38.99;99316.66;3158420;28;20051;-68
2023/03/25 07:06:43;;;;;;;19.10;8.63;;;;;;;20.47;38.41;99318.69;3152532;28;20077;-73
2023/03/25 07:08:15;;;;;;;;;;;;;;;20.51;38.25;99313.94;3161543;28;20326;-72
2023/03/25 07:09:51;;;;;;;13.95;7.43;;;;;;;20.59;37.73;99314.06;3161349;28;19984;-71
2023/03/25 07:11:27;;;;;;;12.27;7.90;;;;;;;20.71;37.65;99317.38;3154272;28;20067;-73
2023/03/25 07:12:59;;;;;;;15.98;8.73;;;;;;;20.85;36.56;99316.88;3157099;28;20057;-76
2023/03/25 07:14:31;;;;;;;13.85;7.10;;;;;;;20.86;36.69;99322.03;3159782;28;20044;-72
2023/03/25 07:16:03;;;;;;;12.30;7.78;;;;;;;20.93;36.49;99324.09;3156739;28;20051;-74
2023/03/25 07:17:35;;;;;;;12.60;8.15;;;;;;;20.85;35.95;99303.63;3156572;28;20109;-69
2023/03/25 07:19:07;;;;;;;14.18;8.40;;;;;;;20.80;36.13;99319.13;3164371;28;20055;-71
2023/03/25 07:20:39;;;;;;;16.45;7.60;;;;;;;20.81;36.56;99310.22;3169890;28;20039;-67
2023/03/25 07:22:12;;;;;;;12.15;7.55;;;;;;;20.86;36.03;99307.97;3170148;28;20086;-70